Pagrindinis puslapis
METAR-TAF:

METAR-TAF

Oro uostai :

Kibdo, Kolumbija

platuma: 05-43N, ilguma: 076-37W, Aukštis: 53 m

Dabartinis oras

Ataskaita buvo paskelbta 1 valandą ir 4 minutes, ne 23:00 UTC
Vėjas 5 kt iš Šiaurės Rytų
Temperatūra 24°C
Drėgmė 94%
Slėgis 1010 hPa
Matomumas: 8000 m
Su prošvaistėmis ne aukštis 1500 ft
Su prošvaistėmis ne aukštis 8000 ft
Liūtis kaimynystėje

METAR: SKUI 222300Z 05005KT 8000 VCSH BKN015 BKN080 24/23 A2982 RMK VCSH SE

Laikas: 19:04 (00:04 UTC)


TAF: trūkstamas

Orai ataskaitas ir orų prognozės (METAR, TAF).

turimą stotys yra geltonos ir raudonos taškus žemėlapyje.

Perkelti pele per norėdami pamatyti stoties vardą.

Tada spustelėkite, norėdami matyti oro stebėjimo ir prognozės.

Norėdami pakeisti žemėlapį: spustelėkite ant žalios mygtukų su juodo kryžiaus žemyn,; žalią mygtuką su brūkšneliu, jei norite nutolinti; arba žalių rodyklių gretimoms žemėlapius.


METAR-TAF: